createdAt,value
2022-07-31T00:01:33.429Z,16.87
2022-07-31T00:04:35.542Z,16.80
2022-07-31T00:07:37.555Z,16.83
2022-07-31T00:10:39.579Z,16.79
2022-07-31T00:13:57.321Z,16.79
2022-07-31T00:17:00.910Z,16.77
2022-07-31T00:20:04.443Z,16.72
2022-07-31T00:23:06.430Z,16.66
2022-07-31T00:26:08.919Z,16.62
2022-07-31T00:29:11.250Z,16.57
2022-07-31T00:32:18.430Z,16.60
2022-07-31T00:35:20.825Z,16.62
2022-07-31T00:38:29.859Z,16.56
2022-07-31T00:41:40.593Z,16.52
2022-07-31T00:44:42.578Z,16.43
2022-07-31T00:47:49.727Z,16.46
2022-07-31T00:50:58.579Z,16.36
2022-07-31T00:54:00.559Z,16.37
2022-07-31T00:57:05.973Z,16.36
2022-07-31T01:00:08.818Z,16.34
2022-07-31T01:03:10.871Z,16.34
2022-07-31T01:06:13.457Z,16.32
2022-07-31T01:09:20.631Z,16.32
2022-07-31T01:12:52.337Z,16.20
2022-07-31T01:15:57.558Z,16.20
2022-07-31T01:19:00.146Z,16.20
2022-07-31T01:22:41.194Z,16.15
2022-07-31T01:26:04.712Z,16.08
2022-07-31T01:29:21.518Z,16.08
2022-07-31T01:32:29.806Z,16.10
2022-07-31T01:35:41.541Z,15.93
2022-07-31T01:38:47.892Z,16.05
2022-07-31T01:41:50.316Z,16.05
2022-07-31T01:44:56.179Z,16.04
2022-07-31T01:48:00.815Z,15.97
2022-07-31T01:51:09.050Z,15.94
2022-07-31T01:54:12.952Z,15.92
2022-07-31T01:57:17.251Z,15.87
2022-07-31T02:00:34.581Z,15.89
2022-07-31T02:03:43.787Z,15.95
2022-07-31T02:06:50.074Z,15.86
2022-07-31T02:09:58.335Z,15.94
2022-07-31T02:13:05.848Z,15.95
2022-07-31T02:16:10.350Z,15.99
2022-07-31T02:19:12.607Z,15.94
2022-07-31T02:22:15.674Z,16.02
2022-07-31T02:25:26.043Z,15.98
2022-07-31T02:28:28.650Z,16.03
2022-07-31T02:31:32.096Z,15.98
2022-07-31T02:34:35.042Z,15.94
2022-07-31T02:37:38.937Z,15.93
2022-07-31T02:40:42.472Z,15.94
2022-07-31T02:43:45.097Z,15.83
2022-07-31T02:46:53.716Z,15.77
2022-07-31T02:49:58.197Z,15.78
2022-07-31T02:53:00.086Z,15.82
2022-07-31T02:56:04.687Z,15.92
2022-07-31T02:59:10.800Z,15.88
2022-07-31T03:02:36.795Z,15.93
2022-07-31T03:05:41.014Z,15.87
2022-07-31T03:08:45.712Z,15.84
2022-07-31T03:11:51.226Z,15.85
2022-07-31T03:14:54.779Z,15.86
2022-07-31T03:17:58.819Z,15.93
2022-07-31T03:21:10.002Z,15.84
2022-07-31T03:24:12.316Z,15.71
2022-07-31T03:27:14.837Z,15.60
2022-07-31T03:30:18.796Z,15.62
2022-07-31T03:33:22.288Z,15.70
2022-07-31T03:36:24.309Z,15.67
2022-07-31T03:39:26.238Z,15.54
2022-07-31T03:42:32.505Z,15.55
2022-07-31T03:45:35.375Z,15.64
2022-07-31T03:48:38.498Z,15.49
2022-07-31T03:51:41.163Z,15.50
2022-07-31T03:54:44.495Z,15.50
2022-07-31T03:57:52.220Z,15.58
2022-07-31T04:00:56.563Z,15.57
2022-07-31T04:04:01.795Z,15.53
2022-07-31T04:07:12.009Z,15.44
2022-07-31T04:10:14.440Z,15.46
2022-07-31T04:13:19.182Z,15.53
2022-07-31T04:16:21.737Z,15.45
2022-07-31T04:19:24.100Z,15.38
2022-07-31T04:22:26.681Z,15.38
2022-07-31T04:25:30.268Z,15.30
2022-07-31T04:29:02.472Z,15.32
2022-07-31T04:32:05.530Z,15.36
2022-07-31T04:35:13.831Z,15.38
2022-07-31T04:38:17.268Z,15.38
2022-07-31T04:41:21.732Z,15.34
2022-07-31T04:44:24.488Z,15.25
2022-07-31T04:47:31.612Z,15.29
2022-07-31T04:50:33.687Z,15.27
2022-07-31T04:53:38.443Z,15.29
2022-07-31T04:56:43.892Z,15.25
2022-07-31T04:59:59.074Z,15.27
2022-07-31T05:03:08.668Z,15.27
2022-07-31T05:06:12.478Z,15.32
2022-07-31T05:09:23.632Z,15.33
2022-07-31T05:12:30.780Z,15.34
2022-07-31T05:15:36.464Z,15.33
2022-07-31T05:18:41.238Z,15.27
2022-07-31T05:22:02.904Z,15.26
2022-07-31T05:25:32.122Z,15.27
2022-07-31T05:28:35.082Z,15.29
2022-07-31T05:31:37.224Z,15.18
2022-07-31T05:34:40.344Z,15.27
2022-07-31T05:37:42.647Z,15.26
2022-07-31T05:40:46.347Z,15.16
2022-07-31T05:44:12.734Z,15.21
2022-07-31T05:47:18.092Z,15.17
2022-07-31T05:50:22.294Z,15.16
2022-07-31T05:53:25.349Z,15.12
2022-07-31T05:56:47.924Z,15.12
2022-07-31T05:59:53.810Z,15.15
2022-07-31T06:02:57.004Z,15.11
2022-07-31T06:06:17.671Z,15.17
2022-07-31T06:09:21.170Z,15.21
2022-07-31T06:12:24.039Z,15.29
2022-07-31T06:15:27.092Z,15.23
2022-07-31T06:18:29.231Z,15.27
2022-07-31T06:21:31.253Z,15.13
2022-07-31T06:24:33.850Z,15.21
2022-07-31T06:27:38.669Z,15.20
2022-07-31T06:30:43.995Z,15.20
2022-07-31T06:33:48.379Z,15.14
2022-07-31T06:36:52.095Z,15.09
2022-07-31T06:39:58.540Z,15.09
2022-07-31T06:43:20.724Z,15.15
2022-07-31T06:47:04.039Z,15.24
2022-07-31T06:50:25.937Z,15.26
2022-07-31T06:53:36.211Z,15.22
2022-07-31T06:56:39.488Z,15.30
2022-07-31T06:59:42.738Z,15.30
2022-07-31T07:02:45.504Z,15.43
2022-07-31T07:05:48.601Z,15.38
2022-07-31T07:08:52.265Z,15.47
2022-07-31T07:11:57.072Z,15.60
2022-07-31T07:15:01.333Z,15.54
2022-07-31T07:18:04.733Z,15.63
2022-07-31T07:21:15.987Z,15.62
2022-07-31T07:24:19.908Z,15.72
2022-07-31T07:27:29.775Z,15.58
2022-07-31T07:30:32.554Z,15.61
2022-07-31T07:33:41.438Z,15.52
2022-07-31T07:36:55.646Z,15.44
2022-07-31T07:40:05.588Z,15.38
2022-07-31T07:43:08.384Z,15.23
2022-07-31T07:46:11.041Z,15.27
2022-07-31T07:49:17.161Z,15.34
2022-07-31T07:52:28.808Z,15.24
2022-07-31T07:55:54.633Z,15.37
2022-07-31T07:59:15.541Z,15.41
2022-07-31T08:02:37.540Z,15.54
2022-07-31T08:05:40.897Z,15.27
2022-07-31T08:08:49.337Z,15.21
2022-07-31T08:12:11.444Z,15.39
2022-07-31T08:15:32.893Z,15.62
2022-07-31T08:18:43.578Z,15.73
2022-07-31T08:21:45.910Z,15.68
2022-07-31T08:24:48.518Z,15.87
2022-07-31T08:27:51.538Z,15.88
2022-07-31T08:30:57.098Z,15.59
2022-07-31T08:33:59.879Z,15.43
2022-07-31T08:37:51.011Z,15.33
2022-07-31T08:40:26.144Z,15.37
2022-07-31T08:44:03.097Z,15.33
2022-07-31T08:46:56.197Z,15.32
2022-07-31T08:49:58.962Z,15.41
2022-07-31T08:53:04.313Z,15.49
2022-07-31T08:56:27.993Z,15.36
2022-07-31T08:59:30.554Z,15.34
2022-07-31T09:02:33.509Z,15.34
2022-07-31T09:05:54.613Z,15.57
2022-07-31T09:08:57.180Z,15.50
2022-07-31T09:11:59.565Z,15.49
2022-07-31T09:15:30.421Z,15.42
2022-07-31T09:18:35.999Z,15.40
2022-07-31T09:21:44.312Z,15.39
2022-07-31T09:24:46.886Z,15.40
2022-07-31T09:27:50.050Z,15.55
2022-07-31T09:30:57.027Z,15.65
2022-07-31T09:34:30.918Z,15.78
2022-07-31T09:37:50.844Z,15.86
2022-07-31T09:41:56.217Z,15.83
2022-07-31T09:45:31.362Z,15.98
2022-07-31T09:48:34.525Z,16.02
2022-07-31T09:51:45.269Z,15.88
2022-07-31T09:55:14.351Z,16.13
2022-07-31T09:58:21.605Z,15.92
2022-07-31T10:01:24.396Z,16.02
2022-07-31T10:04:26.633Z,15.94
2022-07-31T10:07:32.487Z,15.79
2022-07-31T10:10:46.762Z,15.67
2022-07-31T10:14:10.679Z,15.77
2022-07-31T10:17:15.240Z,15.66
2022-07-31T10:20:36.827Z,15.55
2022-07-31T10:23:45.910Z,15.78
2022-07-31T10:27:00.151Z,15.75
2022-07-31T10:30:08.060Z,15.88
2022-07-31T10:33:41.837Z,16.03
2022-07-31T10:37:11.275Z,15.93
2022-07-31T10:40:42.996Z,16.08
2022-07-31T10:43:53.470Z,15.99
2022-07-31T10:47:18.253Z,16.01
2022-07-31T10:51:03.327Z,16.14
2022-07-31T10:54:24.020Z,16.19
2022-07-31T10:57:56.254Z,16.33
2022-07-31T11:01:32.167Z,16.28
2022-07-31T11:05:06.930Z,16.08
2022-07-31T11:08:28.513Z,16.12
2022-07-31T11:11:39.298Z,16.14
2022-07-31T11:15:00.447Z,16.27
2022-07-31T11:18:38.140Z,16.02
2022-07-31T11:21:42.576Z,16.21
2022-07-31T11:24:55.698Z,16.33
2022-07-31T11:28:09.623Z,16.28
2022-07-31T11:31:12.265Z,16.41
2022-07-31T11:34:14.399Z,16.35
2022-07-31T11:37:18.109Z,16.66
2022-07-31T11:40:22.257Z,16.70
2022-07-31T11:43:26.220Z,16.77
2022-07-31T11:46:32.323Z,16.75
2022-07-31T11:49:48.374Z,16.68
2022-07-31T11:52:51.511Z,16.66
2022-07-31T11:55:57.637Z,16.62
2022-07-31T11:58:59.709Z,16.67
2022-07-31T12:02:12.373Z,16.65
2022-07-31T12:05:14.929Z,16.62
2022-07-31T12:08:17.697Z,16.74
2022-07-31T12:11:20.923Z,16.58
2022-07-31T12:14:37.685Z,16.61
2022-07-31T12:17:41.492Z,16.68
2022-07-31T12:20:55.856Z,16.66
2022-07-31T12:23:58.613Z,16.70
2022-07-31T12:27:00.979Z,16.81
2022-07-31T12:30:14.134Z,16.84
2022-07-31T12:33:18.046Z,16.99
2022-07-31T12:36:20.789Z,17.13
2022-07-31T12:39:23.127Z,17.04
2022-07-31T12:42:41.289Z,17.19
2022-07-31T12:45:45.352Z,17.31
2022-07-31T12:48:47.654Z,17.27
2022-07-31T12:51:50.732Z,17.35
2022-07-31T12:54:53.253Z,17.43
2022-07-31T12:57:55.809Z,17.66
2022-07-31T13:00:57.944Z,17.54
2022-07-31T13:04:00.976Z,17.68
2022-07-31T13:07:06.530Z,17.91
2022-07-31T13:10:18.941Z,18.12
2022-07-31T13:13:25.958Z,18.19
2022-07-31T13:16:28.177Z,18.27
2022-07-31T13:19:31.778Z,18.35
2022-07-31T13:22:34.880Z,18.33
2022-07-31T13:25:36.931Z,18.23
2022-07-31T13:28:39.989Z,18.18
2022-07-31T13:31:42.207Z,18.22
2022-07-31T13:34:44.445Z,18.29
2022-07-31T13:37:47.244Z,18.20
2022-07-31T13:41:09.913Z,18.21
2022-07-31T13:44:13.332Z,18.29
2022-07-31T13:47:15.791Z,18.33
2022-07-31T13:50:17.875Z,18.39
2022-07-31T13:53:20.145Z,18.56
2022-07-31T13:56:42.012Z,18.55
2022-07-31T13:59:45.060Z,18.51
2022-07-31T14:02:47.477Z,18.62
2022-07-31T14:05:51.444Z,18.60
2022-07-31T14:08:53.463Z,18.49
2022-07-31T14:11:56.102Z,18.67
2022-07-31T14:14:58.493Z,18.61
2022-07-31T14:18:02.410Z,18.63
2022-07-31T14:21:08.671Z,18.46
2022-07-31T14:24:10.710Z,18.67
2022-07-31T14:27:13.032Z,18.88
2022-07-31T14:30:19.862Z,18.74
2022-07-31T14:33:22.312Z,18.79
2022-07-31T14:36:24.378Z,18.67
2022-07-31T14:39:26.700Z,18.90
2022-07-31T14:42:29.088Z,18.86
2022-07-31T14:45:31.559Z,19.03
2022-07-31T14:48:41.216Z,19.23
2022-07-31T14:51:43.215Z,19.09
2022-07-31T14:54:47.654Z,19.09
2022-07-31T14:57:50.560Z,19.34
2022-07-31T15:00:52.911Z,19.30
2022-07-31T15:03:54.912Z,19.21
2022-07-31T15:07:13.033Z,19.66
2022-07-31T15:10:19.359Z,20.20
2022-07-31T15:13:21.787Z,20.58
2022-07-31T15:16:23.859Z,20.45
2022-07-31T15:19:26.250Z,20.58
2022-07-31T15:22:28.538Z,20.73
2022-07-31T15:25:30.913Z,20.55
2022-07-31T15:28:33.184Z,20.79
2022-07-31T15:31:35.339Z,21.05
2022-07-31T15:34:39.263Z,20.41
2022-07-31T15:37:44.269Z,20.04
2022-07-31T15:40:50.537Z,19.83
2022-07-31T15:43:52.725Z,19.66
2022-07-31T15:46:55.106Z,19.63
2022-07-31T15:50:00.016Z,19.73
2022-07-31T15:53:03.557Z,19.87
2022-07-31T15:56:06.198Z,19.89
2022-07-31T15:59:08.513Z,19.83
2022-07-31T16:02:12.844Z,19.69
2022-07-31T16:05:21.479Z,19.53
2022-07-31T16:08:28.944Z,19.53
2022-07-31T16:12:03.879Z,19.51
2022-07-31T16:15:00.349Z,19.54
2022-07-31T16:18:03.312Z,19.47
2022-07-31T16:21:05.581Z,19.39
2022-07-31T16:24:07.709Z,19.92
2022-07-31T16:27:10.324Z,20.18
2022-07-31T16:30:13.866Z,20.39
2022-07-31T16:33:17.578Z,20.35
2022-07-31T16:36:27.115Z,20.29
2022-07-31T16:39:31.685Z,20.49
2022-07-31T16:42:33.815Z,20.42
2022-07-31T16:45:38.842Z,20.45
2022-07-31T16:48:41.279Z,20.31
2022-07-31T16:51:43.321Z,20.47
2022-07-31T16:54:46.281Z,20.35
2022-07-31T16:57:48.255Z,20.11
2022-07-31T17:00:50.534Z,20.08
2022-07-31T17:04:00.106Z,20.00
2022-07-31T17:07:04.539Z,19.81
2022-07-31T17:10:07.646Z,19.78
2022-07-31T17:13:11.982Z,19.67
2022-07-31T17:16:15.688Z,19.50
2022-07-31T17:19:42.793Z,19.35
2022-07-31T17:22:44.857Z,19.20
2022-07-31T17:25:53.261Z,19.10
2022-07-31T17:28:55.337Z,19.09
2022-07-31T17:31:59.833Z,18.81
2022-07-31T17:35:06.398Z,18.64
2022-07-31T17:38:08.784Z,18.37
2022-07-31T17:41:25.534Z,18.12
2022-07-31T17:44:28.255Z,17.85
2022-07-31T17:47:30.567Z,17.63
2022-07-31T17:50:33.155Z,17.49
2022-07-31T17:53:54.450Z,17.30
2022-07-31T17:57:03.885Z,17.16
2022-07-31T18:00:12.842Z,17.04
2022-07-31T18:03:19.960Z,16.93
2022-07-31T18:06:31.033Z,16.81
2022-07-31T18:09:38.197Z,16.60
2022-07-31T18:12:57.584Z,16.54
2022-07-31T18:16:06.707Z,16.42
2022-07-31T18:19:13.826Z,16.38
2022-07-31T18:22:19.297Z,16.17
2022-07-31T18:25:30.365Z,16.07
2022-07-31T18:28:37.028Z,15.87
2022-07-31T18:31:47.217Z,15.84
2022-07-31T18:34:49.370Z,15.78
2022-07-31T18:37:52.670Z,15.72
2022-07-31T18:40:56.198Z,15.63
2022-07-31T18:43:58.254Z,15.58
2022-07-31T18:47:00.482Z,15.54
2022-07-31T18:51:00.116Z,15.46
2022-07-31T18:53:25.964Z,15.38
2022-07-31T18:56:30.882Z,15.34
2022-07-31T18:59:36.887Z,15.30
2022-07-31T19:02:43.475Z,15.26
2022-07-31T19:05:48.979Z,15.18
2022-07-31T19:08:52.777Z,15.16
2022-07-31T19:11:58.600Z,15.15
2022-07-31T19:15:03.301Z,15.13
2022-07-31T19:18:08.293Z,15.06
2022-07-31T19:21:22.687Z,15.08
2022-07-31T19:24:33.750Z,15.06
2022-07-31T19:27:46.984Z,15.13
2022-07-31T19:30:52.742Z,15.18
2022-07-31T19:33:54.992Z,15.20
2022-07-31T19:36:57.679Z,15.21
2022-07-31T19:40:00.053Z,15.29
2022-07-31T19:43:03.164Z,15.28
2022-07-31T19:46:11.565Z,15.33
2022-07-31T19:49:21.032Z,15.33
2022-07-31T19:52:23.383Z,15.34
2022-07-31T19:55:25.908Z,15.30
2022-07-31T19:58:28.237Z,15.27
2022-07-31T20:01:30.735Z,15.29
2022-07-31T20:04:33.346Z,15.35
2022-07-31T20:07:35.583Z,15.30
2022-07-31T20:10:38.289Z,15.32
2022-07-31T20:13:40.851Z,15.27
2022-07-31T20:16:47.795Z,15.27
2022-07-31T20:20:14.491Z,15.08
2022-07-31T20:23:11.757Z,15.15
2022-07-31T20:26:14.520Z,15.12
2022-07-31T20:29:17.034Z,15.09
2022-07-31T20:32:19.180Z,15.00
2022-07-31T20:35:33.093Z,15.03
2022-07-31T20:38:48.597Z,14.91
2022-07-31T20:41:51.405Z,15.01
2022-07-31T20:44:53.696Z,15.05
2022-07-31T20:47:57.164Z,15.02
2022-07-31T20:51:00.394Z,14.96
2022-07-31T20:54:03.095Z,14.96
2022-07-31T20:57:05.229Z,14.90
2022-07-31T21:00:08.212Z,14.80
2022-07-31T21:03:16.883Z,14.74
2022-07-31T21:06:21.105Z,14.69
2022-07-31T21:09:23.808Z,14.65
2022-07-31T21:12:29.642Z,14.64
2022-07-31T21:15:43.316Z,14.67
2022-07-31T21:18:48.146Z,14.61
2022-07-31T21:21:51.445Z,14.51
2022-07-31T21:24:53.733Z,14.49
2022-07-31T21:27:59.939Z,14.45
2022-07-31T21:31:02.322Z,14.38
2022-07-31T21:34:05.240Z,14.36
2022-07-31T21:37:07.597Z,14.36
2022-07-31T21:40:10.333Z,14.32
2022-07-31T21:43:16.616Z,14.30
2022-07-31T21:46:22.902Z,14.25
2022-07-31T21:49:26.050Z,14.24
2022-07-31T21:52:30.161Z,14.24
2022-07-31T21:55:35.917Z,14.24
2022-07-31T21:58:41.004Z,14.23
2022-07-31T22:01:57.733Z,14.22
2022-07-31T22:05:22.601Z,14.21
2022-07-31T22:08:24.679Z,14.22
2022-07-31T22:11:26.915Z,14.19
2022-07-31T22:14:28.906Z,14.20
2022-07-31T22:17:30.847Z,14.17
2022-07-31T22:20:33.111Z,14.13
2022-07-31T22:23:36.406Z,14.21
2022-07-31T22:26:38.857Z,14.25
2022-07-31T22:29:41.083Z,14.19
2022-07-31T22:32:43.477Z,14.22
2022-07-31T22:35:45.536Z,14.28
2022-07-31T22:39:01.009Z,14.32
2022-07-31T22:42:03.302Z,14.27
2022-07-31T22:45:06.506Z,14.27
2022-07-31T22:48:09.793Z,14.27
2022-07-31T22:51:14.370Z,14.30
2022-07-31T22:54:17.331Z,14.34
2022-07-31T22:57:19.201Z,14.28
2022-07-31T23:00:21.900Z,14.21
2022-07-31T23:03:23.766Z,14.20
2022-07-31T23:06:31.381Z,14.10
2022-07-31T23:09:36.367Z,14.01
2022-07-31T23:12:38.722Z,13.95
2022-07-31T23:15:41.583Z,13.82
2022-07-31T23:18:43.767Z,13.76
2022-07-31T23:21:45.864Z,13.71
2022-07-31T23:24:48.325Z,13.67
2022-07-31T23:27:50.564Z,13.69
2022-07-31T23:30:53.120Z,13.71
2022-07-31T23:33:55.258Z,13.71
2022-07-31T23:36:57.465Z,13.75
2022-07-31T23:39:59.752Z,13.80
2022-07-31T23:43:02.632Z,13.92
2022-07-31T23:46:05.492Z,13.97
2022-07-31T23:49:08.666Z,14.01
2022-07-31T23:52:11.024Z,13.86
2022-07-31T23:55:13.364Z,13.87
2022-07-31T23:58:15.237Z,13.82
